Time;durP1;ratioP1;P1;durP2;ratioP2;P2;SDS_P1;SDS_P2;PMS_P1;PMS_P2;Temp;Humidity;BMP_temperature;BMP_pressure;BME280_temperature;BME280_humidity;BME280_pressure;Samples;Min_cycle;Max_cycle;Signal;HPM_P1;HPM_P2
2022/12/31 00:02:25;;;;;;;6.50;2.55;;;;;;;;;;5024330;28;20230;-71
2022/12/31 00:04:51;;;;;;;5.45;2.25;;;;;;;;;;5026699;28;20107;-71
2022/12/31 00:07:18;;;;;;;14.82;2.70;;;;;;;;;;5025602;28;20037;-71
2022/12/31 00:09:44;;;;;;;4.88;2.00;;;;;;;;;;5027023;28;20513;-70
2022/12/31 00:12:11;;;;;;;11.40;2.72;;;;;;;;;;5026008;28;20502;-71
2022/12/31 00:14:38;;;;;;;10.70;2.70;;;;;;;;;;5023989;28;20055;-72
2022/12/31 00:17:04;;;;;;;6.07;2.35;;;;;;;;;;5025014;28;20303;-71
2022/12/31 00:19:31;;;;;;;8.10;2.83;;;;;;;;;;5025268;28;20413;-73
2022/12/31 00:21:58;;;;;;;7.85;2.30;;;;;;;;;;5031750;28;20044;-72
2022/12/31 00:24:28;;;;;;;5.40;2.05;;;;;;;;;;5040817;28;20132;-72
2022/12/31 00:26:55;;;;;;;4.68;1.95;;;;;;;;;;5025574;28;20044;-72
2022/12/31 00:29:22;;;;;;;5.53;2.13;;;;;;;;;;5025082;28;20045;-72
2022/12/31 00:31:48;;;;;;;8.32;2.50;;;;;;;;;;5024496;28;20037;-71
2022/12/31 00:34:15;;;;;;;6.90;2.67;;;;;;;;;;5025660;28;20037;-72
2022/12/31 00:36:42;;;;;;;4.88;1.98;;;;;;;;;;5024705;28;20648;-70
2022/12/31 00:39:10;;;;;;;8.93;2.10;;;;;;;;;;5026840;28;20033;-71
2022/12/31 00:41:36;;;;;;;8.13;2.75;;;;;;;;;;5024023;28;20972;-71
2022/12/31 00:44:03;;;;;;;6.38;2.45;;;;;;;;;;5026220;28;20140;-70
2022/12/31 00:46:30;;;;;;;9.48;2.35;;;;;;;;;;5017071;28;20112;-71
2022/12/31 00:48:57;;;;;;;8.25;2.53;;;;;;;;;;5039418;28;20119;-71
2022/12/31 00:51:26;;;;;;;8.38;2.20;;;;;;;;;;5025880;28;20128;-71
2022/12/31 00:53:53;;;;;;;6.65;2.40;;;;;;;;;;5026781;28;20056;-71
2022/12/31 00:56:21;;;;;;;6.50;2.20;;;;;;;;;;5024127;28;20069;-71
2022/12/31 00:58:48;;;;;;;9.30;2.72;;;;;;;;;;5026849;28;20518;-71
2022/12/31 01:01:34;;;;;;;6.28;2.38;;;;;;;;;;5026832;28;20038;-72
2022/12/31 01:04:02;;;;;;;6.47;2.03;;;;;;;;;;5026824;28;20738;-72
2022/12/31 01:06:29;;;;;;;6.03;2.38;;;;;;;;;;5024046;28;21007;-71
2022/12/31 01:08:56;;;;;;;10.75;3.03;;;;;;;;;;5038243;28;20101;-71
2022/12/31 01:11:23;;;;;;;10.65;3.95;;;;;;;;;;5046450;28;20045;-71
2022/12/31 01:13:52;;;;;;;9.57;3.38;;;;;;;;;;5036590;28;20048;-72
2022/12/31 01:16:20;;;;;;;7.72;2.78;;;;;;;;;;5043466;28;20513;-72
2022/12/31 01:18:46;;;;;;;10.63;2.38;;;;;;;;;;5045950;28;20032;-72
2022/12/31 01:21:14;;;;;;;12.45;2.65;;;;;;;;;;5044093;28;20036;-72
2022/12/31 01:23:41;;;;;;;11.93;3.00;;;;;;;;;;5043361;28;20033;-72
2022/12/31 01:26:08;;;;;;;6.72;2.92;;;;;;;;;;5044602;28;20094;-72
2022/12/31 01:28:35;;;;;;;10.88;3.00;;;;;;;;;;5045786;28;20041;-72
2022/12/31 01:31:06;;;;;;;5.95;2.53;;;;;;;;;;5046323;28;20109;-72
2022/12/31 01:33:33;;;;;;;10.85;2.78;;;;;;;;;;5045572;28;20036;-73
2022/12/31 01:36:04;;;;;;;9.20;2.42;;;;;;;;;;5045118;28;20044;-73
2022/12/31 01:38:30;;;;;;;5.82;2.30;;;;;;;;;;5044742;28;20361;-72
2022/12/31 01:40:57;;;;;;;9.68;2.47;;;;;;;;;;5047397;28;20056;-72
2022/12/31 01:43:24;;;;;;;7.10;2.45;;;;;;;;;;5041907;28;20467;-72
2022/12/31 01:45:53;;;;;;;7.95;2.60;;;;;;;;;;5048655;28;20388;-72
2022/12/31 01:48:22;;;;;;;6.93;2.42;;;;;;;;;;5046364;28;20098;-72
2022/12/31 01:50:49;;;;;;;9.18;1.90;;;;;;;;;;5051239;28;20037;-71
2022/12/31 01:53:17;;;;;;;6.97;1.90;;;;;;;;;;5050803;28;20075;-70
2022/12/31 01:55:46;;;;;;;5.95;2.08;;;;;;;;;;5020504;28;20038;-72
2022/12/31 01:58:24;;;;;;;9.32;1.98;;;;;;;;;;5031084;28;20040;-74
2022/12/31 02:00:52;;;;;;;8.23;1.73;;;;;;;;;;5048132;28;20068;-71
2022/12/31 02:03:20;;;;;;;6.30;1.88;;;;;;;;;;5049873;28;20037;-66
2022/12/31 02:05:47;;;;;;;4.22;1.63;;;;;;;;;;5028772;28;20037;-71
2022/12/31 02:08:22;;;;;;;6.68;2.03;;;;;;;;;;5064877;28;20044;-69
2022/12/31 02:10:49;;;;;;;8.55;2.05;;;;;;;;;;5037180;28;20195;-69
2022/12/31 02:13:16;;;;;;;7.63;2.00;;;;;;;;;;5026765;28;20125;-68
2022/12/31 02:16:01;;;;;;;4.57;1.30;;;;;;;;;;5022816;28;20087;-70
2022/12/31 02:18:46;;;;;;;3.75;1.33;;;;;;;;;;5026445;28;20154;-68
2022/12/31 02:21:23;;;;;;;6.35;1.60;;;;;;;;;;5024904;28;20036;-68
2022/12/31 02:24:02;;;;;;;4.78;1.75;;;;;;;;;;5022259;28;20126;-71
2022/12/31 02:26:31;;;;;;;9.23;1.85;;;;;;;;;;5011996;28;20033;-71
2022/12/31 02:29:07;;;;;;;4.78;1.45;;;;;;;;;;5028479;28;20418;-73
2022/12/31 02:31:39;;;;;;;3.35;1.25;;;;;;;;;;5023496;28;20140;-69
2022/12/31 02:34:08;;;;;;;3.00;1.23;;;;;;;;;;5023153;28;20235;-69
2022/12/31 02:36:37;;;;;;;5.55;1.80;;;;;;;;;;5024434;28;20044;-70
2022/12/31 02:39:05;;;;;;;11.32;2.13;;;;;;;;;;5028109;28;20042;-69
2022/12/31 02:41:50;;;;;;;7.13;2.15;;;;;;;;;;5026371;28;20430;-68
2022/12/31 02:44:25;;;;;;;5.90;2.35;;;;;;;;;;5029464;28;20041;-65
2022/12/31 02:47:34;;;;;;;4.20;1.90;;;;;;;;;;5059572;28;20119;-71
2022/12/31 02:50:13;;;;;;;7.55;2.90;;;;;;;;;;5021700;28;20028;-72
2022/12/31 02:52:45;;;;;;;7.30;2.60;;;;;;;;;;5060793;28;20444;-71
2022/12/31 02:55:33;;;;;;;8.25;2.30;;;;;;;;;;5060153;28;20028;-72
2022/12/31 02:58:19;;;;;;;10.00;2.53;;;;;;;;;;5049482;28;20037;-72
2022/12/31 03:03:37;;;;;;;5.53;1.73;;;;;;;;;;5059408;28;20078;-71
2022/12/31 03:06:04;;;;;;;6.90;2.13;;;;;;;;;;5060849;28;20055;-72
2022/12/31 03:09:11;;;;;;;4.28;1.90;;;;;;;;;;5059519;28;20040;-71
2022/12/31 03:12:44;;;;;;;5.82;1.70;;;;;;;;;;5059806;28;20041;-72
2022/12/31 03:14:04;;;;;;;6.18;1.75;;;;;;;;;;5060507;28;20033;-71
2022/12/31 03:16:33;;;;;;;6.28;1.80;;;;;;;;;;5060103;28;20485;-72
2022/12/31 03:27:15;;;;;;;8.68;2.13;;;;;;;;;;5042103;28;20157;-71
2022/12/31 03:29:44;;;;;;;3.78;1.58;;;;;;;;;;5046747;28;20094;-72
2022/12/31 03:32:11;;;;;;;4.03;1.17;;;;;;;;;;5048261;28;20498;-68
2022/12/31 03:34:37;;;;;;;3.20;1.27;;;;;;;;;;5047084;28;20084;-68
2022/12/31 03:37:04;;;;;;;3.63;1.13;;;;;;;;;;5047884;28;20749;-67
2022/12/31 03:39:31;;;;;;;3.47;1.15;;;;;;;;;;5046973;28;20044;-69
2022/12/31 03:41:57;;;;;;;4.57;1.05;;;;;;;;;;5046971;28;20045;-70
2022/12/31 03:44:24;;;;;;;7.88;1.38;;;;;;;;;;5045535;28;20565;-70
2022/12/31 03:46:53;;;;;;;4.65;1.40;;;;;;;;;;5044661;28;20102;-72
2022/12/31 03:49:22;;;;;;;8.23;1.55;;;;;;;;;;5025450;28;20044;-72
2022/12/31 03:51:49;;;;;;;3.22;1.10;;;;;;;;;;5054202;28;20044;-71
2022/12/31 03:54:16;;;;;;;7.18;1.30;;;;;;;;;;5055696;28;20056;-72
2022/12/31 03:56:43;;;;;;;4.00;1.40;;;;;;;;;;5033957;28;20041;-72
2022/12/31 03:59:09;;;;;;;5.47;1.35;;;;;;;;;;5028868;28;20045;-71
2022/12/31 04:01:36;;;;;;;9.52;1.92;;;;;;;;;;5027730;28;20033;-70
2022/12/31 04:04:03;;;;;;;4.78;1.10;;;;;;;;;;5026972;28;20045;-71
2022/12/31 04:06:29;;;;;;;4.32;1.25;;;;;;;;;;5025965;28;20154;-71
2022/12/31 04:08:56;;;;;;;4.38;1.13;;;;;;;;;;5027647;28;20049;-71
2022/12/31 04:11:23;;;;;;;3.80;1.17;;;;;;;;;;5027289;28;20041;-71
2022/12/31 04:13:49;;;;;;;4.10;1.33;;;;;;;;;;5029150;28;20036;-72
2022/12/31 04:16:16;;;;;;;7.63;1.73;;;;;;;;;;5041635;28;20064;-72
2022/12/31 04:18:42;;;;;;;11.10;2.20;;;;;;;;;;5025958;28;20068;-71
2022/12/31 04:21:17;;;;;;;6.18;2.05;;;;;;;;;;5021196;28;20037;-72
2022/12/31 04:23:43;;;;;;;6.13;1.90;;;;;;;;;;5032799;28;20033;-71
2022/12/31 04:26:10;;;;;;;3.65;1.27;;;;;;;;;;5040371;28;20041;-71
2022/12/31 04:28:37;;;;;;;5.10;1.30;;;;;;;;;;5037797;28;20093;-72
2022/12/31 04:31:03;;;;;;;3.25;1.05;;;;;;;;;;5046552;28;20131;-72
2022/12/31 04:33:30;;;;;;;2.92;0.90;;;;;;;;;;5046969;28;20045;-70
2022/12/31 04:36:01;;;;;;;5.22;0.93;;;;;;;;;;5044955;28;20033;-71
2022/12/31 04:38:30;;;;;;;2.70;0.68;;;;;;;;;;5034381;28;20246;-73
2022/12/31 04:41:16;;;;;;;1.17;0.40;;;;;;;;;;5030490;28;20042;-72
2022/12/31 04:43:46;;;;;;;4.20;0.80;;;;;;;;;;5023213;28;20159;-73
2022/12/31 04:46:14;;;;;;;3.72;0.73;;;;;;;;;;5022352;28;20049;-70
2022/12/31 04:48:40;;;;;;;1.48;0.52;;;;;;;;;;5045883;28;20045;-71
2022/12/31 04:51:07;;;;;;;2.53;0.60;;;;;;;;;;5044979;28;20398;-72
2022/12/31 04:53:34;;;;;;;3.22;0.77;;;;;;;;;;5046417;28;20037;-71
2022/12/31 04:56:00;;;;;;;2.10;0.73;;;;;;;;;;5030627;28;20049;-71
2022/12/31 05:01:38;;;;;;;1.77;0.68;;;;;;;;;;5010694;28;20136;-74
2022/12/31 05:04:05;;;;;;;1.98;0.60;;;;;;;;;;5022933;28;20147;-73
2022/12/31 05:06:32;;;;;;;2.88;0.70;;;;;;;;;;5021272;28;20048;-73
2022/12/31 05:08:58;;;;;;;2.25;0.68;;;;;;;;;;5030821;28;20297;-73
2022/12/31 05:11:25;;;;;;;2.08;0.70;;;;;;;;;;5023394;28;20042;-73
2022/12/31 05:13:52;;;;;;;3.63;0.73;;;;;;;;;;5020255;28;20046;-73
2022/12/31 05:16:18;;;;;;;2.55;0.70;;;;;;;;;;5024074;28;20086;-73
2022/12/31 05:18:45;;;;;;;2.13;0.68;;;;;;;;;;5038825;28;20047;-73
2022/12/31 05:21:15;;;;;;;3.38;0.60;;;;;;;;;;5024406;28;20033;-73
2022/12/31 05:23:42;;;;;;;2.53;0.77;;;;;;;;;;5027382;28;20119;-73
2022/12/31 05:26:08;;;;;;;1.98;0.60;;;;;;;;;;5046183;28;20041;-73
2022/12/31 05:28:35;;;;;;;7.30;1.70;;;;;;;;;;5044526;28;20041;-73
2022/12/31 05:31:02;;;;;;;9.82;1.58;;;;;;;;;;5044960;28;20036;-74
2022/12/31 05:33:28;;;;;;;2.40;0.70;;;;;;;;;;5033589;28;20501;-73
2022/12/31 05:35:57;;;;;;;1.70;0.60;;;;;;;;;;5019846;28;20052;-72
2022/12/31 05:38:24;;;;;;;1.95;0.75;;;;;;;;;;5020210;28;20037;-70
2022/12/31 05:40:58;;;;;;;3.60;0.80;;;;;;;;;;5056683;28;20457;-72
2022/12/31 05:43:25;;;;;;;2.75;0.60;;;;;;;;;;5043790;28;20053;-72
2022/12/31 05:45:52;;;;;;;2.55;0.80;;;;;;;;;;5045365;28;20153;-73
2022/12/31 05:48:18;;;;;;;2.20;0.70;;;;;;;;;;5043690;28;20040;-71
2022/12/31 05:50:49;;;;;;;1.92;0.68;;;;;;;;;;5044386;28;20045;-76
2022/12/31 05:53:15;;;;;;;4.20;0.80;;;;;;;;;;5046655;28;20056;-73
2022/12/31 05:55:42;;;;;;;4.35;0.90;;;;;;;;;;5050966;28;20113;-72
2022/12/31 05:58:09;;;;;;;1.98;0.70;;;;;;;;;;5043741;28;20064;-75
2022/12/31 06:00:35;;;;;;;3.92;0.80;;;;;;;;;;5043634;28;20041;-72
2022/12/31 06:03:02;;;;;;;3.03;0.80;;;;;;;;;;5047415;28;20041;-71
2022/12/31 06:05:29;;;;;;;2.30;0.70;;;;;;;;;;5048855;28;20110;-68
2022/12/31 06:07:55;;;;;;;5.43;0.73;;;;;;;;;;5041125;28;20235;-69
2022/12/31 06:10:22;;;;;;;1.55;0.60;;;;;;;;;;5044910;28;20042;-69
2022/12/31 06:12:49;;;;;;;2.00;0.65;;;;;;;;;;5064245;28;20119;-69
2022/12/31 06:15:15;;;;;;;2.45;0.70;;;;;;;;;;5051152;28;20160;-69
2022/12/31 06:17:42;;;;;;;1.65;0.60;;;;;;;;;;5050109;28;20045;-69
2022/12/31 06:20:09;;;;;;;1.65;0.55;;;;;;;;;;5047790;28;20041;-69
2022/12/31 06:22:35;;;;;;;1.92;0.80;;;;;;;;;;5047225;28;21669;-69
2022/12/31 06:25:02;;;;;;;2.92;0.70;;;;;;;;;;5048947;28;20032;-69
2022/12/31 06:27:28;;;;;;;1.73;0.60;;;;;;;;;;5047021;28;20040;-69
2022/12/31 06:29:55;;;;;;;1.77;0.60;;;;;;;;;;5063887;28;20044;-71
2022/12/31 06:32:22;;;;;;;2.13;0.70;;;;;;;;;;5047704;28;20059;-71
2022/12/31 06:34:48;;;;;;;4.65;0.65;;;;;;;;;;5048761;28;20198;-71
2022/12/31 06:37:15;;;;;;;1.98;0.60;;;;;;;;;;5048694;28;20694;-70
2022/12/31 06:39:41;;;;;;;1.92;0.60;;;;;;;;;;5034151;28;20045;-71
2022/12/31 06:42:08;;;;;;;2.15;0.70;;;;;;;;;;5047057;28;20098;-71
2022/12/31 06:44:35;;;;;;;5.70;0.65;;;;;;;;;;5047638;28;20063;-70
2022/12/31 06:47:01;;;;;;;3.80;0.65;;;;;;;;;;5063180;28;20044;-69
2022/12/31 06:49:28;;;;;;;2.95;0.77;;;;;;;;;;5047157;28;20044;-69
2022/12/31 06:51:54;;;;;;;1.23;0.43;;;;;;;;;;5036188;28;20042;-71
2022/12/31 06:54:21;;;;;;;2.35;0.68;;;;;;;;;;5060865;28;20094;-70
2022/12/31 06:56:48;;;;;;;1.33;0.45;;;;;;;;;;5032369;28;20489;-70
2022/12/31 06:59:23;;;;;;;1.05;0.47;;;;;;;;;;5047797;28;20040;-70
2022/12/31 07:01:57;;;;;;;2.45;0.65;;;;;;;;;;5049141;28;20037;-70
2022/12/31 07:04:29;;;;;;;3.58;0.80;;;;;;;;;;5048016;28;20047;-70
2022/12/31 07:06:56;;;;;;;1.27;0.47;;;;;;;;;;5047253;28;20087;-70
2022/12/31 07:09:23;;;;;;;1.65;0.50;;;;;;;;;;5048153;28;21033;-70
2022/12/31 07:12:08;;;;;;;1.35;0.60;;;;;;;;;;5048512;28;20126;-69
2022/12/31 07:14:46;;;;;;;3.10;0.50;;;;;;;;;;5048198;28;20036;-70
2022/12/31 07:17:31;;;;;;;2.33;0.55;;;;;;;;;;5047000;28;20044;-69
2022/12/31 07:20:04;;;;;;;1.17;0.40;;;;;;;;;;5046848;28;20074;-68
2022/12/31 07:22:31;;;;;;;2.28;0.60;;;;;;;;;;5060794;28;20037;-69
2022/12/31 07:24:57;;;;;;;1.83;0.60;;;;;;;;;;5047730;28;20041;-69
2022/12/31 07:27:36;;;;;;;3.45;0.90;;;;;;;;;;5045940;28;20528;-70
2022/12/31 07:30:05;;;;;;;1.00;0.43;;;;;;;;;;5048288;28;20545;-69
2022/12/31 07:32:51;;;;;;;2.28;0.73;;;;;;;;;;5046633;28;20048;-69
2022/12/31 07:35:17;;;;;;;7.70;0.68;;;;;;;;;;5055320;28;20045;-70
2022/12/31 07:37:47;;;;;;;2.60;0.60;;;;;;;;;;5016928;28;20444;-69
2022/12/31 07:40:28;;;;;;;1.52;0.60;;;;;;;;;;5050504;28;20069;-70
2022/12/31 07:43:06;;;;;;;5.15;0.85;;;;;;;;;;5039024;28;20057;-70
2022/12/31 07:45:48;;;;;;;2.15;0.50;;;;;;;;;;5045615;28;20039;-70
2022/12/31 07:48:23;;;;;;;1.90;0.50;;;;;;;;;;5045780;28;20930;-70
2022/12/31 07:50:50;;;;;;;1.83;0.65;;;;;;;;;;5048166;28;20514;-69
2022/12/31 07:53:17;;;;;;;2.95;0.77;;;;;;;;;;5048813;28;20048;-69
2022/12/31 07:55:44;;;;;;;1.38;0.55;;;;;;;;;;5047656;28;20040;-69
2022/12/31 07:58:19;;;;;;;2.05;0.70;;;;;;;;;;5047807;28;20406;-70
2022/12/31 08:00:46;;;;;;;2.00;0.60;;;;;;;;;;5045032;28;20127;-68
2022/12/31 08:03:24;;;;;;;2.38;0.63;;;;;;;;;;5047519;28;21306;-69
2022/12/31 08:06:11;;;;;;;2.80;0.60;;;;;;;;;;5044898;28;20614;-68
2022/12/31 08:08:38;;;;;;;3.30;0.90;;;;;;;;;;5044752;28;20044;-68
2022/12/31 08:11:16;;;;;;;2.50;0.60;;;;;;;;;;5047626;28;20899;-72
2022/12/31 08:13:43;;;;;;;2.10;0.60;;;;;;;;;;5047111;28;20044;-70
2022/12/31 08:16:11;;;;;;;1.95;0.50;;;;;;;;;;5047176;28;20689;-71
2022/12/31 08:18:37;;;;;;;1.35;0.50;;;;;;;;;;5044180;28;20041;-70
2022/12/31 08:21:20;;;;;;;2.58;0.60;;;;;;;;;;5046031;28;20059;-70
2022/12/31 08:23:55;;;;;;;3.38;0.60;;;;;;;;;;5045039;28;20045;-71
2022/12/31 08:26:48;;;;;;;3.20;0.70;;;;;;;;;;5045091;28;20782;-71
2022/12/31 08:29:14;;;;;;;1.10;0.50;;;;;;;;;;5046488;28;20052;-71
2022/12/31 08:31:49;;;;;;;1.77;0.60;;;;;;;;;;5044983;28;20067;-72
2022/12/31 08:34:33;;;;;;;2.10;0.70;;;;;;;;;;5045785;28;20029;-71
2022/12/31 08:36:59;;;;;;;;;;;;;;;;;;5039782;28;20033;-71
2022/12/31 08:39:26;;;;;;;1.38;0.52;;;;;;;;;;5040101;28;20347;-71
2022/12/31 08:41:54;;;;;;;2.45;0.70;;;;;;;;;;5027188;28;20044;-71
2022/12/31 08:44:21;;;;;;;2.20;0.63;;;;;;;;;;5026127;28;20090;-71
2022/12/31 08:46:50;;;;;;;2.53;0.63;;;;;;;;;;5024249;28;20037;-70
2022/12/31 08:49:17;;;;;;;1.75;0.60;;;;;;;;;;5026232;28;20124;-69
2022/12/31 08:51:44;;;;;;;1.98;0.70;;;;;;;;;;5040330;28;20506;-69
2022/12/31 08:54:11;;;;;;;1.52;0.52;;;;;;;;;;5025952;28;20045;-70
2022/12/31 08:56:43;;;;;;;1.08;0.60;;;;;;;;;;5023935;28;20057;-71
2022/12/31 08:59:12;;;;;;;1.10;0.50;;;;;;;;;;5037729;28;20082;-71
2022/12/31 09:01:47;;;;;;;2.17;0.73;;;;;;;;;;5025952;28;20032;-71
2022/12/31 09:04:26;;;;;;;3.13;0.70;;;;;;;;;;5027989;28;20037;-70
2022/12/31 09:06:56;;;;;;;1.23;0.50;;;;;;;;;;5025560;28;20046;-69
2022/12/31 09:09:23;;;;;;;2.58;0.60;;;;;;;;;;5026395;28;20124;-70
2022/12/31 09:11:50;;;;;;;2.20;0.65;;;;;;;;;;5026653;28;20045;-70
2022/12/31 09:14:16;;;;;;;1.23;0.40;;;;;;;;;;5025393;28;20140;-70
2022/12/31 09:16:53;;;;;;;0.85;0.40;;;;;;;;;;5033030;28;20120;-70
2022/12/31 09:19:20;;;;;;;1.67;0.50;;;;;;;;;;5025191;28;20049;-70
2022/12/31 09:21:46;;;;;;;1.90;0.60;;;;;;;;;;5025904;28;20037;-70
2022/12/31 09:24:14;;;;;;;2.33;0.70;;;;;;;;;;5023880;28;20029;-70
2022/12/31 09:26:59;;;;;;;1.95;0.60;;;;;;;;;;5035978;28;20033;-70
2022/12/31 09:29:29;;;;;;;2.70;0.88;;;;;;;;;;5022593;28;20111;-70
2022/12/31 09:32:01;;;;;;;1.52;0.55;;;;;;;;;;5024872;28;20073;-71
2022/12/31 09:34:28;;;;;;;2.33;0.80;;;;;;;;;;5023528;28;20039;-70
2022/12/31 09:37:02;;;;;;;2.35;0.65;;;;;;;;;;5023872;28;20045;-70
2022/12/31 09:39:40;;;;;;;1.88;0.80;;;;;;;;;;5024194;28;20403;-69
2022/12/31 09:42:25;;;;;;;3.03;0.80;;;;;;;;;;5025935;28;20037;-71
2022/12/31 09:45:27;;;;;;;2.88;1.10;;;;;;;;;;5027388;28;20088;-70
2022/12/31 09:48:06;;;;;;;2.80;0.47;;;;;;;;;;5043063;28;20058;-70
2022/12/31 09:50:48;;;;;;;2.25;0.77;;;;;;;;;;5032382;28;20132;-70
2022/12/31 09:53:15;;;;;;;2.63;0.80;;;;;;;;;;5026501;28;20036;-70
2022/12/31 09:55:44;;;;;;;3.03;0.85;;;;;;;;;;5027861;28;20421;-71
2022/12/31 09:58:16;;;;;;;1.92;0.60;;;;;;;;;;5024022;28;20052;-72
2022/12/31 10:00:47;;;;;;;3.10;0.73;;;;;;;;;;5026361;28;20131;-70
2022/12/31 10:03:13;;;;;;;2.38;0.90;;;;;;;;;;5027614;28;20041;-70
2022/12/31 10:06:15;;;;;;;2.28;0.65;;;;;;;;;;5016546;28;20711;-70
2022/12/31 10:08:46;;;;;;;2.85;1.02;;;;;;;;;;5001037;28;20133;-70
2022/12/31 10:11:31;;;;;;;1.45;0.52;;;;;;;;;;5038203;28;20078;-68
2022/12/31 10:14:06;;;;;;;7.18;1.30;;;;;;;;;;5045094;28;20076;-68
2022/12/31 10:16:32;;;;;;;2.42;0.80;;;;;;;;;;5046639;28;20437;-69
2022/12/31 10:19:11;;;;;;;0.50;0.30;;;;;;;;;;5062315;28;20049;-70
2022/12/31 10:21:50;;;;;;;1.85;0.50;;;;;;;;;;5058805;28;20036;-71
2022/12/31 10:24:27;;;;;;;0.70;0.40;;;;;;;;;;5047610;28;20086;-71
2022/12/31 10:27:20;;;;;;;1.40;0.50;;;;;;;;;;5045553;28;20065;-72
2022/12/31 10:29:56;;;;;;;1.58;0.50;;;;;;;;;;5039799;28;20187;-71
2022/12/31 10:32:48;;;;;;;0.90;0.50;;;;;;;;;;5043920;28;20036;-71
2022/12/31 10:35:31;;;;;;;1.13;0.52;;;;;;;;;;5025805;28;20164;-71
2022/12/31 10:38:04;;;;;;;1.85;0.57;;;;;;;;;;5032360;28;20065;-71
2022/12/31 10:40:44;;;;;;;0.93;0.40;;;;;;;;;;5026512;28;20094;-72
2022/12/31 10:43:27;;;;;;;1.02;0.50;;;;;;;;;;5027927;28;20049;-71
2022/12/31 10:45:54;;;;;;;;;;;;;;;;;;5048075;28;20383;-70
2022/12/31 10:48:29;;;;;;;1.85;0.52;;;;;;;;;;5032105;28;19996;-70
2022/12/31 10:51:08;;;;;;;0.65;0.30;;;;;;;;;;5038448;28;20044;-71
2022/12/31 10:53:53;;;;;;;1.55;0.45;;;;;;;;;;5046388;28;20114;-70
2022/12/31 10:56:38;;;;;;;0.52;0.40;;;;;;;;;;5042796;28;20037;-71
2022/12/31 10:59:27;;;;;;;0.85;0.40;;;;;;;;;;5047265;28;20401;-71
2022/12/31 11:02:15;;;;;;;1.05;0.40;;;;;;;;;;5012048;28;20037;-71
2022/12/31 11:04:45;;;;;;;0.70;0.35;;;;;;;;;;5030200;28;20045;-71
2022/12/31 11:07:33;;;;;;;1.00;0.40;;;;;;;;;;5062914;28;20033;-67
2022/12/31 11:10:03;;;;;;;0.52;0.35;;;;;;;;;;5034164;28;20129;-70
2022/12/31 11:12:30;;;;;;;1.48;0.40;;;;;;;;;;5027260;28;20216;-69
2022/12/31 11:15:02;;;;;;;0.65;0.40;;;;;;;;;;5027189;28;20044;-66
2022/12/31 11:17:40;;;;;;;0.73;0.40;;;;;;;;;;5028245;28;20036;-70
2022/12/31 11:20:27;;;;;;;0.68;0.35;;;;;;;;;;5026895;28;20091;-69
2022/12/31 11:23:01;;;;;;;0.55;0.30;;;;;;;;;;5027365;28;20049;-69
2022/12/31 11:25:34;;;;;;;0.60;0.30;;;;;;;;;;5025899;28;20081;-69
2022/12/31 11:28:03;;;;;;;0.30;0.30;;;;;;;;;;5026063;28;20146;-70
2022/12/31 11:30:44;;;;;;;1.15;0.40;;;;;;;;;;5028151;28;20105;-70
2022/12/31 11:33:17;;;;;;;0.85;0.40;;;;;;;;;;5028166;28;20041;-70
2022/12/31 11:35:59;;;;;;;0.98;0.47;;;;;;;;;;5026871;28;20144;-69
2022/12/31 11:38:49;;;;;;;0.30;0.30;;;;;;;;;;5028088;28;20496;-70
2022/12/31 11:41:24;;;;;;;0.38;0.32;;;;;;;;;;5027208;28;20044;-69
2022/12/31 11:43:56;;;;;;;0.30;0.30;;;;;;;;;;5026598;28;20041;-70
2022/12/31 11:46:41;;;;;;;0.27;0.27;;;;;;;;;;5025695;28;20044;-70
2022/12/31 11:49:23;;;;;;;0.88;0.32;;;;;;;;;;5026253;28;20321;-69
2022/12/31 11:52:08;;;;;;;0.85;0.38;;;;;;;;;;5039350;28;20112;-69
2022/12/31 11:55:02;;;;;;;0.70;0.40;;;;;;;;;;5025315;28;20780;-70
2022/12/31 11:57:35;;;;;;;1.33;0.43;;;;;;;;;;5025753;28;20496;-71
2022/12/31 12:00:04;;;;;;;0.38;0.30;;;;;;;;;;5026325;28;20517;-70
2022/12/31 12:02:40;;;;;;;0.95;0.40;;;;;;;;;;5025434;28;20832;-69
2022/12/31 12:05:07;;;;;;;0.32;0.32;;;;;;;;;;5026083;28;20087;-69
2022/12/31 12:07:33;;;;;;;1.08;0.40;;;;;;;;;;5027151;28;20577;-68
2022/12/31 12:10:03;;;;;;;1.27;0.40;;;;;;;;;;5027262;28;20037;-69
2022/12/31 12:12:39;;;;;;;1.65;0.40;;;;;;;;;;5026977;28;20503;-70
2022/12/31 12:15:10;;;;;;;1.13;0.50;;;;;;;;;;5026038;28;20037;-71
2022/12/31 12:17:38;;;;;;;0.98;0.43;;;;;;;;;;5025901;28;20041;-68
2022/12/31 12:20:20;;;;;;;0.65;0.30;;;;;;;;;;5027152;28;20049;-69
2022/12/31 12:22:55;;;;;;;0.30;0.30;;;;;;;;;;5027729;28;20057;-68
2022/12/31 12:25:24;;;;;;;0.20;0.20;;;;;;;;;;5025633;28;20076;-69
2022/12/31 12:27:51;;;;;;;1.45;0.60;;;;;;;;;;5027929;28;20094;-69
2022/12/31 12:30:24;;;;;;;0.73;0.30;;;;;;;;;;5027655;28;20049;-69
2022/12/31 12:33:03;;;;;;;0.80;0.40;;;;;;;;;;5030726;28;20117;-69
2022/12/31 12:35:34;;;;;;;0.73;0.40;;;;;;;;;;5025643;28;20968;-68
2022/12/31 12:38:17;;;;;;;0.35;0.28;;;;;;;;;;5026433;28;20045;-68
2022/12/31 12:41:13;;;;;;;1.17;0.45;;;;;;;;;;5025255;28;20110;-69
2022/12/31 12:43:40;;;;;;;1.00;0.43;;;;;;;;;;5026599;28;20045;-70
2022/12/31 12:46:25;;;;;;;2.35;0.80;;;;;;;;;;5026050;28;20045;-69
2022/12/31 12:48:55;;;;;;;4.65;0.70;;;;;;;;;;5025457;28;20042;-69
2022/12/31 12:51:41;;;;;;;0.82;0.40;;;;;;;;;;5027353;28;20052;-69
2022/12/31 12:54:10;;;;;;;0.65;0.40;;;;;;;;;;5024685;28;20049;-67
2022/12/31 12:56:55;;;;;;;0.88;0.40;;;;;;;;;;5025236;28;20041;-70
2022/12/31 12:59:33;;;;;;;5.40;0.40;;;;;;;;;;5026349;28;20051;-68
2022/12/31 13:02:03;;;;;;;1.70;0.57;;;;;;;;;;5026393;28;20037;-69
2022/12/31 13:04:41;;;;;;;0.43;0.30;;;;;;;;;;5025358;28;20490;-69
2022/12/31 13:07:28;;;;;;;0.52;0.30;;;;;;;;;;5024003;28;20049;-68
2022/12/31 13:10:05;;;;;;;1.63;0.50;;;;;;;;;;5025025;28;20033;-69
2022/12/31 13:12:34;;;;;;;1.00;0.40;;;;;;;;;;5024007;28;20033;-69
2022/12/31 13:15:01;;;;;;;0.45;0.30;;;;;;;;;;5025201;28;20080;-68
2022/12/31 13:17:28;;;;;;;0.63;0.40;;;;;;;;;;5024342;28;20121;-68
2022/12/31 13:19:57;;;;;;;0.75;0.40;;;;;;;;;;5025668;28;20231;-69
2022/12/31 13:22:34;;;;;;;0.52;0.30;;;;;;;;;;5025583;28;20486;-69
2022/12/31 13:25:04;;;;;;;0.30;0.30;;;;;;;;;;5025269;28;20041;-68
2022/12/31 13:27:35;;;;;;;0.40;0.40;;;;;;;;;;5024488;28;20468;-67
2022/12/31 13:30:03;;;;;;;1.35;0.45;;;;;;;;;;5025579;28;20041;-68
2022/12/31 13:32:40;;;;;;;1.48;0.50;;;;;;;;;;5025000;28;20073;-69
2022/12/31 13:35:21;;;;;;;0.75;0.40;;;;;;;;;;5025520;28;20033;-69
2022/12/31 13:37:48;;;;;;;1.63;0.50;;;;;;;;;;5036831;28;20069;-68
2022/12/31 13:40:21;;;;;;;0.43;0.30;;;;;;;;;;5025598;28;20041;-69
2022/12/31 13:43:00;;;;;;;3.95;0.50;;;;;;;;;;5032476;28;20057;-69
2022/12/31 13:45:30;;;;;;;0.93;0.43;;;;;;;;;;5024589;28;20128;-69
2022/12/31 13:48:00;;;;;;;1.52;0.47;;;;;;;;;;5024678;28;21987;-67
2022/12/31 13:50:37;;;;;;;2.08;0.77;;;;;;;;;;5023463;28;20048;-68
2022/12/31 13:53:07;;;;;;;1.85;0.70;;;;;;;;;;5025732;28;20045;-68
2022/12/31 13:55:51;;;;;;;2.42;0.68;;;;;;;;;;5024198;28;20500;-68
2022/12/31 13:58:30;;;;;;;1.05;0.40;;;;;;;;;;5026131;28;20531;-67
2022/12/31 14:01:15;;;;;;;4.80;0.50;;;;;;;;;;5023661;28;20064;-68
2022/12/31 14:03:53;;;;;;;2.20;0.73;;;;;;;;;;5023888;28;20034;-68
2022/12/31 14:06:29;;;;;;;2.95;0.77;;;;;;;;;;5024247;28;20029;-68
2022/12/31 14:08:56;;;;;;;2.20;0.90;;;;;;;;;;5025700;28;20079;-68
2022/12/31 14:11:28;;;;;;;5.38;0.80;;;;;;;;;;5021728;28;20051;-68
2022/12/31 14:14:20;;;;;;;2.08;0.68;;;;;;;;;;5024931;28;22140;-68
2022/12/31 14:16:49;;;;;;;2.33;0.65;;;;;;;;;;5025256;28;20071;-68
2022/12/31 14:19:35;;;;;;;1.33;0.50;;;;;;;;;;5025563;28;20099;-68
2022/12/31 14:22:02;;;;;;;3.13;0.80;;;;;;;;;;5030622;28;20045;-68
2022/12/31 14:24:45;;;;;;;4.45;0.95;;;;;;;;;;5024273;28;20040;-68
2022/12/31 14:27:17;;;;;;;2.28;0.90;;;;;;;;;;5025581;28;20934;-68
2022/12/31 14:29:47;;;;;;;5.80;1.20;;;;;;;;;;5023709;28;20034;-69
2022/12/31 14:32:13;;;;;;;2.42;0.77;;;;;;;;;;5025701;28;20042;-69
2022/12/31 14:34:56;;;;;;;2.33;0.80;;;;;;;;;;5026277;28;20038;-69
2022/12/31 14:37:32;;;;;;;1.60;0.60;;;;;;;;;;5027724;28;20029;-70
2022/12/31 14:40:17;;;;;;;3.28;0.88;;;;;;;;;;5028962;28;20471;-70
2022/12/31 14:42:52;;;;;;;1.73;0.60;;;;;;;;;;5028663;28;20045;-69
2022/12/31 14:45:34;;;;;;;1.88;0.70;;;;;;;;;;5029775;28;20037;-70
2022/12/31 14:48:17;;;;;;;1.48;0.60;;;;;;;;;;5027065;28;20073;-69
2022/12/31 14:50:45;;;;;;;3.95;0.90;;;;;;;;;;5056586;28;20039;-70
2022/12/31 14:53:21;;;;;;;1.67;0.57;;;;;;;;;;5034949;28;20154;-69
2022/12/31 14:55:56;;;;;;;2.70;0.43;;;;;;;;;;5025901;28;20041;-69
2022/12/31 14:58:33;;;;;;;1.90;0.75;;;;;;;;;;5047965;28;20041;-69
2022/12/31 15:01:07;;;;;;;2.15;0.65;;;;;;;;;;5049602;28;20476;-69
2022/12/31 15:03:34;;;;;;;;;;;;;;;;;;5049073;28;20125;-69
2022/12/31 15:06:12;;;;;;;1.35;0.57;;;;;;;;;;5049728;28;20691;-69
2022/12/31 15:08:48;;;;;;;2.35;0.63;;;;;;;;;;5046642;28;20043;-68
2022/12/31 15:11:15;;;;;;;3.40;0.93;;;;;;;;;;5057858;28;20034;-69
2022/12/31 15:13:41;;;;;;;1.15;0.55;;;;;;;;;;5025649;28;20390;-69
2022/12/31 15:16:15;;;;;;;1.33;0.50;;;;;;;;;;5027145;28;20624;-68
2022/12/31 15:19:01;;;;;;;3.15;0.77;;;;;;;;;;5046970;28;20043;-64
2022/12/31 15:21:46;;;;;;;1.45;0.57;;;;;;;;;;5040721;28;20068;-66
2022/12/31 15:24:21;;;;;;;1.98;0.60;;;;;;;;;;5049572;28;20584;-71
2022/12/31 15:26:49;;;;;;;1.33;0.45;;;;;;;;;;5053542;28;20100;-70
2022/12/31 15:29:41;;;;;;;1.75;0.50;;;;;;;;;;5057997;28;20127;-70